sensor_id;sensor_type;location;lat;lon;timestamp;temperature;humidity
22779;DHT22;11556;51.194;3.800;2022-12-20T00:01:52;11.70;99.90
22779;DHT22;11556;51.194;3.800;2022-12-20T00:04:18;11.70;99.90
22779;DHT22;11556;51.194;3.800;2022-12-20T00:06:43;11.60;99.90
22779;DHT22;11556;51.194;3.800;2022-12-20T00:09:10;11.60;99.90
22779;DHT22;11556;51.194;3.800;2022-12-20T00:11:38;11.60;99.90
22779;DHT22;11556;51.194;3.800;2022-12-20T00:14:06;11.50;99.90
22779;DHT22;11556;51.194;3.800;2022-12-20T00:16:32;11.50;99.90
22779;DHT22;11556;51.194;3.800;2022-12-20T00:19:00;11.40;99.90
22779;DHT22;11556;51.194;3.800;2022-12-20T00:21:26;11.30;99.90
22779;DHT22;11556;51.194;3.800;2022-12-20T00:23:53;11.30;99.90
22779;DHT22;11556;51.194;3.800;2022-12-20T00:26:21;11.30;99.90
22779;DHT22;11556;51.194;3.800;2022-12-20T00:28:47;11.20;99.90
22779;DHT22;11556;51.194;3.800;2022-12-20T00:31:15;11.20;99.90
22779;DHT22;11556;51.194;3.800;2022-12-20T00:33:45;11.20;99.90
22779;DHT22;11556;51.194;3.800;2022-12-20T00:36:11;11.00;99.90
22779;DHT22;11556;51.194;3.800;2022-12-20T00:38:37;11.00;99.90
22779;DHT22;11556;51.194;3.800;2022-12-20T00:41:11;11.00;99.90
22779;DHT22;11556;51.194;3.800;2022-12-20T00:43:38;11.00;99.90
22779;DHT22;11556;51.194;3.800;2022-12-20T00:46:04;10.90;99.90
22779;DHT22;11556;51.194;3.800;2022-12-20T00:48:30;11.00;99.90
22779;DHT22;11556;51.194;3.800;2022-12-20T00:51:01;11.00;99.90
22779;DHT22;11556;51.194;3.800;2022-12-20T00:53:28;11.00;99.90
22779;DHT22;11556;51.194;3.800;2022-12-20T00:55:54;11.00;99.90
22779;DHT22;11556;51.194;3.800;2022-12-20T00:58:19;11.00;99.90
22779;DHT22;11556;51.194;3.800;2022-12-20T01:00:45;11.00;99.90
22779;DHT22;11556;51.194;3.800;2022-12-20T01:03:10;11.00;99.90
22779;DHT22;11556;51.194;3.800;2022-12-20T01:05:36;11.10;99.90
22779;DHT22;11556;51.194;3.800;2022-12-20T01:08:02;11.10;99.90
22779;DHT22;11556;51.194;3.800;2022-12-20T01:10:28;11.00;99.90
22779;DHT22;11556;51.194;3.800;2022-12-20T01:12:54;11.10;99.90
22779;DHT22;11556;51.194;3.800;2022-12-20T01:15:20;11.00;99.90
22779;DHT22;11556;51.194;3.800;2022-12-20T01:17:46;11.00;99.90
22779;DHT22;11556;51.194;3.800;2022-12-20T01:20:12;11.10;99.90
22779;DHT22;11556;51.194;3.800;2022-12-20T01:22:37;11.10;99.90
22779;DHT22;11556;51.194;3.800;2022-12-20T01:25:03;11.10;99.90
22779;DHT22;11556;51.194;3.800;2022-12-20T01:27:29;11.10;99.90
22779;DHT22;11556;51.194;3.800;2022-12-20T01:29:55;11.20;99.90
22779;DHT22;11556;51.194;3.800;2022-12-20T01:32:20;11.10;99.90
22779;DHT22;11556;51.194;3.800;2022-12-20T01:34:46;11.10;99.90
22779;DHT22;11556;51.194;3.800;2022-12-20T01:37:11;11.20;99.90
22779;DHT22;11556;51.194;3.800;2022-12-20T01:39:37;11.20;99.90
22779;DHT22;11556;51.194;3.800;2022-12-20T01:42:03;11.30;99.90
22779;DHT22;11556;51.194;3.800;2022-12-20T01:46:55;11.30;99.90
22779;DHT22;11556;51.194;3.800;2022-12-20T01:49:32;11.50;99.90
22779;DHT22;11556;51.194;3.800;2022-12-20T01:52:09;11.50;99.90
22779;DHT22;11556;51.194;3.800;2022-12-20T01:54:40;11.50;99.90
22779;DHT22;11556;51.194;3.800;2022-12-20T01:57:11;11.50;99.90
22779;DHT22;11556;51.194;3.800;2022-12-20T01:59:41;11.50;99.90
22779;DHT22;11556;51.194;3.800;2022-12-20T02:02:10;11.60;99.90
22779;DHT22;11556;51.194;3.800;2022-12-20T02:04:36;11.60;99.90
22779;DHT22;11556;51.194;3.800;2022-12-20T02:07:02;11.60;99.90
22779;DHT22;11556;51.194;3.800;2022-12-20T02:09:30;11.60;99.90
22779;DHT22;11556;51.194;3.800;2022-12-20T02:24:01;11.80;99.90
22779;DHT22;11556;51.194;3.800;2022-12-20T02:29:09;11.80;99.90
22779;DHT22;11556;51.194;3.800;2022-12-20T02:31:40;11.90;99.90
22779;DHT22;11556;51.194;3.800;2022-12-20T02:34:08;11.90;99.90
22779;DHT22;11556;51.194;3.800;2022-12-20T02:36:35;11.80;99.90
22779;DHT22;11556;51.194;3.800;2022-12-20T02:39:00;11.80;99.90
22779;DHT22;11556;51.194;3.800;2022-12-20T02:41:31;11.90;99.90
22779;DHT22;11556;51.194;3.800;2022-12-20T02:44:03;12.00;99.90
22779;DHT22;11556;51.194;3.800;2022-12-20T02:46:49;12.00;99.90
22779;DHT22;11556;51.194;3.800;2022-12-20T02:49:19;12.10;99.90
22779;DHT22;11556;51.194;3.800;2022-12-20T02:51:49;12.00;99.90
22779;DHT22;11556;51.194;3.800;2022-12-20T02:54:17;12.00;99.90
22779;DHT22;11556;51.194;3.800;2022-12-20T02:56:50;11.80;99.90
22779;DHT22;11556;51.194;3.800;2022-12-20T02:59:28;11.90;99.90
22779;DHT22;11556;51.194;3.800;2022-12-20T03:01:55;11.90;99.90
22779;DHT22;11556;51.194;3.800;2022-12-20T03:04:26;11.90;99.90
22779;DHT22;11556;51.194;3.800;2022-12-20T03:09:24;12.00;99.90
22779;DHT22;11556;51.194;3.800;2022-12-20T03:11:50;12.00;99.90
22779;DHT22;11556;51.194;3.800;2022-12-20T03:14:16;11.80;99.90
22779;DHT22;11556;51.194;3.800;2022-12-20T03:16:41;11.70;99.90
22779;DHT22;11556;51.194;3.800;2022-12-20T03:19:07;11.50;99.90
22779;DHT22;11556;51.194;3.800;2022-12-20T03:21:32;11.50;99.90
22779;DHT22;11556;51.194;3.800;2022-12-20T03:23:58;11.50;99.90
22779;DHT22;11556;51.194;3.800;2022-12-20T03:26:23;11.40;99.90
22779;DHT22;11556;51.194;3.800;2022-12-20T03:28:49;11.30;99.90
22779;DHT22;11556;51.194;3.800;2022-12-20T03:31:14;11.30;99.90
22779;DHT22;11556;51.194;3.800;2022-12-20T03:33:40;11.30;99.90
22779;DHT22;11556;51.194;3.800;2022-12-20T03:36:06;11.20;99.90
22779;DHT22;11556;51.194;3.800;2022-12-20T03:38:31;11.30;99.90
22779;DHT22;11556;51.194;3.800;2022-12-20T03:40:57;11.30;99.90
22779;DHT22;11556;51.194;3.800;2022-12-20T03:43:22;11.30;99.90
22779;DHT22;11556;51.194;3.800;2022-12-20T03:45:48;11.40;99.90
22779;DHT22;11556;51.194;3.800;2022-12-20T03:48:14;11.30;99.90
22779;DHT22;11556;51.194;3.800;2022-12-20T03:50:40;11.40;99.90
22779;DHT22;11556;51.194;3.800;2022-12-20T03:53:05;11.40;99.90
22779;DHT22;11556;51.194;3.800;2022-12-20T03:55:31;11.30;99.90
22779;DHT22;11556;51.194;3.800;2022-12-20T03:57:57;11.40;99.90
22779;DHT22;11556;51.194;3.800;2022-12-20T04:00:22;11.40;99.90
22779;DHT22;11556;51.194;3.800;2022-12-20T04:02:48;11.40;99.90
22779;DHT22;11556;51.194;3.800;2022-12-20T04:05:13;11.50;99.90
22779;DHT22;11556;51.194;3.800;2022-12-20T04:07:41;11.50;99.90
22779;DHT22;11556;51.194;3.800;2022-12-20T04:10:07;11.50;99.90
22779;DHT22;11556;51.194;3.800;2022-12-20T04:12:32;11.60;99.90
22779;DHT22;11556;51.194;3.800;2022-12-20T04:14:58;11.60;99.90
22779;DHT22;11556;51.194;3.800;2022-12-20T04:17:23;11.60;99.90
22779;DHT22;11556;51.194;3.800;2022-12-20T04:19:49;11.70;99.90
22779;DHT22;11556;51.194;3.800;2022-12-20T04:22:14;11.80;99.90
22779;DHT22;11556;51.194;3.800;2022-12-20T04:24:40;11.80;99.90
22779;DHT22;11556;51.194;3.800;2022-12-20T04:27:06;11.70;99.90
22779;DHT22;11556;51.194;3.800;2022-12-20T04:29:31;11.80;99.90
22779;DHT22;11556;51.194;3.800;2022-12-20T04:31:57;11.90;99.90
22779;DHT22;11556;51.194;3.800;2022-12-20T04:34:22;12.00;99.90
22779;DHT22;11556;51.194;3.800;2022-12-20T04:36:48;12.00;99.90
22779;DHT22;11556;51.194;3.800;2022-12-20T04:39:13;12.00;99.90
22779;DHT22;11556;51.194;3.800;2022-12-20T04:41:39;12.00;99.90
22779;DHT22;11556;51.194;3.800;2022-12-20T04:44:04;12.10;99.90
22779;DHT22;11556;51.194;3.800;2022-12-20T04:46:30;12.10;99.90
22779;DHT22;11556;51.194;3.800;2022-12-20T04:48:56;12.00;99.90
22779;DHT22;11556;51.194;3.800;2022-12-20T04:51:21;12.00;99.90
22779;DHT22;11556;51.194;3.800;2022-12-20T04:53:47;12.00;99.90
22779;DHT22;11556;51.194;3.800;2022-12-20T04:56:18;11.90;99.90
22779;DHT22;11556;51.194;3.800;2022-12-20T04:58:45;11.90;99.90
22779;DHT22;11556;51.194;3.800;2022-12-20T05:01:11;11.90;99.90
22779;DHT22;11556;51.194;3.800;2022-12-20T05:03:37;12.00;99.90
22779;DHT22;11556;51.194;3.800;2022-12-20T05:06:04;11.90;99.90
22779;DHT22;11556;51.194;3.800;2022-12-20T05:08:29;12.00;99.90
22779;DHT22;11556;51.194;3.800;2022-12-20T05:10:55;12.00;99.90
22779;DHT22;11556;51.194;3.800;2022-12-20T05:13:21;11.90;99.90
22779;DHT22;11556;51.194;3.800;2022-12-20T05:15:50;11.80;99.90
22779;DHT22;11556;51.194;3.800;2022-12-20T05:18:16;11.70;99.90
22779;DHT22;11556;51.194;3.800;2022-12-20T05:20:42;11.90;99.90
22779;DHT22;11556;51.194;3.800;2022-12-20T05:23:09;12.00;99.90
22779;DHT22;11556;51.194;3.800;2022-12-20T05:25:53;12.00;99.90
22779;DHT22;11556;51.194;3.800;2022-12-20T05:28:37;11.90;99.90
22779;DHT22;11556;51.194;3.800;2022-12-20T05:31:03;11.90;99.90
22779;DHT22;11556;51.194;3.800;2022-12-20T05:33:28;11.90;99.90
22779;DHT22;11556;51.194;3.800;2022-12-20T05:35:54;12.00;99.90
22779;DHT22;11556;51.194;3.800;2022-12-20T05:38:21;11.90;99.90
22779;DHT22;11556;51.194;3.800;2022-12-20T05:40:47;11.90;99.90
22779;DHT22;11556;51.194;3.800;2022-12-20T05:43:14;12.00;99.90
22779;DHT22;11556;51.194;3.800;2022-12-20T05:45:44;12.10;99.90
22779;DHT22;11556;51.194;3.800;2022-12-20T05:48:09;12.10;99.90
22779;DHT22;11556;51.194;3.800;2022-12-20T05:50:35;12.10;99.90
22779;DHT22;11556;51.194;3.800;2022-12-20T05:53:00;12.20;99.90
22779;DHT22;11556;51.194;3.800;2022-12-20T05:55:26;12.20;99.90
22779;DHT22;11556;51.194;3.800;2022-12-20T05:57:52;12.30;99.90
22779;DHT22;11556;51.194;3.800;2022-12-20T06:00:17;12.30;99.90
22779;DHT22;11556;51.194;3.800;2022-12-20T06:02:43;12.30;99.90
22779;DHT22;11556;51.194;3.800;2022-12-20T06:05:08;12.30;99.90
22779;DHT22;11556;51.194;3.800;2022-12-20T06:07:34;12.30;99.90
22779;DHT22;11556;51.194;3.800;2022-12-20T06:10:00;12.40;99.90
22779;DHT22;11556;51.194;3.800;2022-12-20T06:12:25;12.40;99.90
22779;DHT22;11556;51.194;3.800;2022-12-20T06:14:51;12.40;99.90
22779;DHT22;11556;51.194;3.800;2022-12-20T06:17:16;12.40;99.90
22779;DHT22;11556;51.194;3.800;2022-12-20T06:19:43;12.40;99.90
22779;DHT22;11556;51.194;3.800;2022-12-20T06:22:08;12.40;99.90
22779;DHT22;11556;51.194;3.800;2022-12-20T06:24:35;12.40;99.90
22779;DHT22;11556;51.194;3.800;2022-12-20T06:27:01;12.30;99.90
22779;DHT22;11556;51.194;3.800;2022-12-20T06:29:27;12.40;99.90
22779;DHT22;11556;51.194;3.800;2022-12-20T06:31:53;12.30;99.90
22779;DHT22;11556;51.194;3.800;2022-12-20T06:34:19;12.10;99.90
22779;DHT22;11556;51.194;3.800;2022-12-20T06:36:45;12.10;99.90
22779;DHT22;11556;51.194;3.800;2022-12-20T06:39:11;11.90;99.90
22779;DHT22;11556;51.194;3.800;2022-12-20T06:41:38;11.90;99.90
22779;DHT22;11556;51.194;3.800;2022-12-20T06:44:03;11.90;99.90
22779;DHT22;11556;51.194;3.800;2022-12-20T06:46:29;11.80;99.90
22779;DHT22;11556;51.194;3.800;2022-12-20T06:48:57;11.80;99.90
22779;DHT22;11556;51.194;3.800;2022-12-20T06:51:24;11.70;99.90
22779;DHT22;11556;51.194;3.800;2022-12-20T06:53:49;11.70;99.90
22779;DHT22;11556;51.194;3.800;2022-12-20T06:56:15;11.70;99.90
22779;DHT22;11556;51.194;3.800;2022-12-20T06:58:40;11.70;99.90
22779;DHT22;11556;51.194;3.800;2022-12-20T07:01:06;11.70;99.90
22779;DHT22;11556;51.194;3.800;2022-12-20T07:03:32;11.70;99.90
22779;DHT22;11556;51.194;3.800;2022-12-20T07:05:57;11.60;99.90
22779;DHT22;11556;51.194;3.800;2022-12-20T07:08:23;11.70;99.90
22779;DHT22;11556;51.194;3.800;2022-12-20T07:10:50;11.70;99.90
22779;DHT22;11556;51.194;3.800;2022-12-20T07:13:17;11.70;99.90
22779;DHT22;11556;51.194;3.800;2022-12-20T07:15:43;11.70;99.90
22779;DHT22;11556;51.194;3.800;2022-12-20T07:18:08;11.80;99.90
22779;DHT22;11556;51.194;3.800;2022-12-20T07:20:34;11.80;99.90
22779;DHT22;11556;51.194;3.800;2022-12-20T07:23:00;11.80;99.90
22779;DHT22;11556;51.194;3.800;2022-12-20T07:25:26;11.80;99.90
22779;DHT22;11556;51.194;3.800;2022-12-20T07:27:51;11.80;99.90
22779;DHT22;11556;51.194;3.800;2022-12-20T07:30:18;11.80;99.90
22779;DHT22;11556;51.194;3.800;2022-12-20T07:32:45;11.80;99.90
22779;DHT22;11556;51.194;3.800;2022-12-20T07:35:11;11.60;99.90
22779;DHT22;11556;51.194;3.800;2022-12-20T07:37:37;11.50;99.90
22779;DHT22;11556;51.194;3.800;2022-12-20T07:40:04;11.40;99.90
22779;DHT22;11556;51.194;3.800;2022-12-20T07:42:29;11.40;99.90
22779;DHT22;11556;51.194;3.800;2022-12-20T07:44:55;11.30;99.90
22779;DHT22;11556;51.194;3.800;2022-12-20T07:47:21;11.30;99.90
22779;DHT22;11556;51.194;3.800;2022-12-20T07:49:46;11.30;99.90
22779;DHT22;11556;51.194;3.800;2022-12-20T07:52:13;11.30;99.90
22779;DHT22;11556;51.194;3.800;2022-12-20T07:54:44;11.20;99.90
22779;DHT22;11556;51.194;3.800;2022-12-20T07:57:14;11.10;99.90
22779;DHT22;11556;51.194;3.800;2022-12-20T07:59:49;11.20;99.90
22779;DHT22;11556;51.194;3.800;2022-12-20T08:02:25;11.10;99.90
22779;DHT22;11556;51.194;3.800;2022-12-20T08:04:52;11.00;99.90
22779;DHT22;11556;51.194;3.800;2022-12-20T08:07:18;10.90;99.90
22779;DHT22;11556;51.194;3.800;2022-12-20T08:09:44;10.90;99.90
22779;DHT22;11556;51.194;3.800;2022-12-20T08:12:13;10.90;99.90
22779;DHT22;11556;51.194;3.800;2022-12-20T08:14:40;10.90;99.90
22779;DHT22;11556;51.194;3.800;2022-12-20T08:17:06;10.80;99.90
22779;DHT22;11556;51.194;3.800;2022-12-20T08:19:31;10.90;99.90
22779;DHT22;11556;51.194;3.800;2022-12-20T08:21:57;10.90;99.90
22779;DHT22;11556;51.194;3.800;2022-12-20T08:24:22;10.90;99.90
22779;DHT22;11556;51.194;3.800;2022-12-20T08:26:48;10.90;99.90
22779;DHT22;11556;51.194;3.800;2022-12-20T08:29:14;10.90;99.90
22779;DHT22;11556;51.194;3.800;2022-12-20T08:31:41;11.00;99.90
22779;DHT22;11556;51.194;3.800;2022-12-20T08:34:07;11.10;99.90
22779;DHT22;11556;51.194;3.800;2022-12-20T08:36:33;11.20;99.90
22779;DHT22;11556;51.194;3.800;2022-12-20T08:39:03;11.30;99.90
22779;DHT22;11556;51.194;3.800;2022-12-20T08:41:28;11.30;99.90
22779;DHT22;11556;51.194;3.800;2022-12-20T08:43:54;11.30;99.90
22779;DHT22;11556;51.194;3.800;2022-12-20T08:46:20;11.40;99.90
22779;DHT22;11556;51.194;3.800;2022-12-20T08:48:45;11.50;99.90
22779;DHT22;11556;51.194;3.800;2022-12-20T08:51:11;11.50;99.90
22779;DHT22;11556;51.194;3.800;2022-12-20T08:53:37;11.50;99.90
22779;DHT22;11556;51.194;3.800;2022-12-20T08:56:08;11.50;99.90
22779;DHT22;11556;51.194;3.800;2022-12-20T08:58:35;11.50;99.90
22779;DHT22;11556;51.194;3.800;2022-12-20T09:01:02;11.50;99.90
22779;DHT22;11556;51.194;3.800;2022-12-20T09:03:29;11.50;99.90
22779;DHT22;11556;51.194;3.800;2022-12-20T09:05:56;11.70;99.90
22779;DHT22;11556;51.194;3.800;2022-12-20T09:08:21;11.70;99.90
22779;DHT22;11556;51.194;3.800;2022-12-20T09:10:47;11.70;99.90
22779;DHT22;11556;51.194;3.800;2022-12-20T09:13:13;11.70;99.90
22779;DHT22;11556;51.194;3.800;2022-12-20T09:15:38;11.50;99.90
22779;DHT22;11556;51.194;3.800;2022-12-20T09:18:04;11.50;99.90
22779;DHT22;11556;51.194;3.800;2022-12-20T09:20:30;11.50;99.90
22779;DHT22;11556;51.194;3.800;2022-12-20T09:22:57;11.60;99.90
22779;DHT22;11556;51.194;3.800;2022-12-20T09:25:24;11.70;99.90
22779;DHT22;11556;51.194;3.800;2022-12-20T09:27:50;11.60;99.90
22779;DHT22;11556;51.194;3.800;2022-12-20T09:30:16;11.60;99.90
22779;DHT22;11556;51.194;3.800;2022-12-20T09:32:41;11.70;99.90
22779;DHT22;11556;51.194;3.800;2022-12-20T09:35:07;11.70;99.90
22779;DHT22;11556;51.194;3.800;2022-12-20T09:37:33;11.70;99.90
22779;DHT22;11556;51.194;3.800;2022-12-20T09:39:58;11.70;99.90
22779;DHT22;11556;51.194;3.800;2022-12-20T09:42:26;11.70;99.90
22779;DHT22;11556;51.194;3.800;2022-12-20T09:44:57;11.70;99.90
22779;DHT22;11556;51.194;3.800;2022-12-20T09:47:25;11.80;99.90
22779;DHT22;11556;51.194;3.800;2022-12-20T09:49:55;11.80;99.90
22779;DHT22;11556;51.194;3.800;2022-12-20T10:00:45;11.70;99.90
22779;DHT22;11556;51.194;3.800;2022-12-20T10:03:27;11.70;99.90
22779;DHT22;11556;51.194;3.800;2022-12-20T10:06:10;11.60;99.90
22779;DHT22;11556;51.194;3.800;2022-12-20T10:08:58;11.60;99.90
22779;DHT22;11556;51.194;3.800;2022-12-20T10:11:44;11.60;99.90
22779;DHT22;11556;51.194;3.800;2022-12-20T10:17:07;11.50;99.90
22779;DHT22;11556;51.194;3.800;2022-12-20T10:25:18;11.50;99.90
22779;DHT22;11556;51.194;3.800;2022-12-20T10:27:45;11.60;99.90
22779;DHT22;11556;51.194;3.800;2022-12-20T10:30:20;11.60;99.90
22779;DHT22;11556;51.194;3.800;2022-12-20T10:32:49;11.60;99.90
22779;DHT22;11556;51.194;3.800;2022-12-20T10:35:22;11.70;99.90
22779;DHT22;11556;51.194;3.800;2022-12-20T10:38:02;11.70;99.90
22779;DHT22;11556;51.194;3.800;2022-12-20T10:40:35;11.50;99.90
22779;DHT22;11556;51.194;3.800;2022-12-20T10:43:02;11.50;99.90
22779;DHT22;11556;51.194;3.800;2022-12-20T10:45:39;11.60;99.90
22779;DHT22;11556;51.194;3.800;2022-12-20T10:48:30;11.70;99.90
22779;DHT22;11556;51.194;3.800;2022-12-20T10:51:02;11.70;99.90
22779;DHT22;11556;51.194;3.800;2022-12-20T10:53:30;11.80;99.90
22779;DHT22;11556;51.194;3.800;2022-12-20T10:56:19;11.70;99.90
22779;DHT22;11556;51.194;3.800;2022-12-20T11:01:27;11.80;99.90
22779;DHT22;11556;51.194;3.800;2022-12-20T11:06:23;11.70;99.90
22779;DHT22;11556;51.194;3.800;2022-12-20T11:08:50;11.80;99.90
22779;DHT22;11556;51.194;3.800;2022-12-20T11:11:22;11.80;99.90
22779;DHT22;11556;51.194;3.800;2022-12-20T11:13:48;11.80;99.90
22779;DHT22;11556;51.194;3.800;2022-12-20T11:16:27;11.80;99.90
22779;DHT22;11556;51.194;3.800;2022-12-20T11:19:10;11.90;99.90
22779;DHT22;11556;51.194;3.800;2022-12-20T11:22:06;11.80;99.90
22779;DHT22;11556;51.194;3.800;2022-12-20T11:35:21;11.60;99.90
22779;DHT22;11556;51.194;3.800;2022-12-20T11:46:57;11.60;99.90
22779;DHT22;11556;51.194;3.800;2022-12-20T11:58:32;11.50;99.90
22779;DHT22;11556;51.194;3.800;2022-12-20T12:00:35;11.50;99.90
22779;DHT22;11556;51.194;3.800;2022-12-20T12:03:15;11.60;99.90
22779;DHT22;11556;51.194;3.800;2022-12-20T12:05:50;11.60;99.90
22779;DHT22;11556;51.194;3.800;2022-12-20T12:08:20;11.60;99.90
22779;DHT22;11556;51.194;3.800;2022-12-20T12:11:11;11.50;99.90
22779;DHT22;11556;51.194;3.800;2022-12-20T12:13:39;11.50;99.90
22779;DHT22;11556;51.194;3.800;2022-12-20T12:18:35;11.50;99.90
22779;DHT22;11556;51.194;3.800;2022-12-20T12:26:31;11.60;99.90
22779;DHT22;11556;51.194;3.800;2022-12-20T12:29:01;11.60;99.90
22779;DHT22;11556;51.194;3.800;2022-12-20T12:40:18;11.60;99.90
22779;DHT22;11556;51.194;3.800;2022-12-20T12:48:26;11.50;99.90
22779;DHT22;11556;51.194;3.800;2022-12-20T12:50:56;11.50;99.90
22779;DHT22;11556;51.194;3.800;2022-12-20T12:53:34;11.50;99.90
22779;DHT22;11556;51.194;3.800;2022-12-20T13:01:50;11.50;99.90
22779;DHT22;11556;51.194;3.800;2022-12-20T13:11:47;11.50;99.90
22779;DHT22;11556;51.194;3.800;2022-12-20T13:16:45;11.50;99.90
22779;DHT22;11556;51.194;3.800;2022-12-20T13:22:19;11.50;99.90
22779;DHT22;11556;51.194;3.800;2022-12-20T13:27:38;11.40;99.90
22779;DHT22;11556;51.194;3.800;2022-12-20T13:40:37;11.30;99.90
22779;DHT22;11556;51.194;3.800;2022-12-20T13:45:48;11.30;99.90
22779;DHT22;11556;51.194;3.800;2022-12-20T13:48:18;11.30;99.90
22779;DHT22;11556;51.194;3.800;2022-12-20T13:50:49;11.40;99.90
22779;DHT22;11556;51.194;3.800;2022-12-20T13:53:18;11.30;99.90
22779;DHT22;11556;51.194;3.800;2022-12-20T13:55:45;11.30;99.90
22779;DHT22;11556;51.194;3.800;2022-12-20T13:58:20;11.40;99.90
22779;DHT22;11556;51.194;3.800;2022-12-20T14:00:48;11.50;99.90
22779;DHT22;11556;51.194;3.800;2022-12-20T14:03:25;11.50;99.90
22779;DHT22;11556;51.194;3.800;2022-12-20T14:05:58;11.40;99.90
22779;DHT22;11556;51.194;3.800;2022-12-20T14:08:29;11.30;99.90
22779;DHT22;11556;51.194;3.800;2022-12-20T14:11:13;11.30;99.90
22779;DHT22;11556;51.194;3.800;2022-12-20T14:13:39;11.40;99.90
22779;DHT22;11556;51.194;3.800;2022-12-20T14:16:09;11.40;99.90
22779;DHT22;11556;51.194;3.800;2022-12-20T14:18:35;11.50;99.90
22779;DHT22;11556;51.194;3.800;2022-12-20T14:21:03;11.50;99.90
22779;DHT22;11556;51.194;3.800;2022-12-20T14:23:42;11.40;99.90
22779;DHT22;11556;51.194;3.800;2022-12-20T14:26:16;11.40;99.90
22779;DHT22;11556;51.194;3.800;2022-12-20T14:28:46;11.50;99.90
22779;DHT22;11556;51.194;3.800;2022-12-20T14:36:40;11.50;99.90
22779;DHT22;11556;51.194;3.800;2022-12-20T14:39:30;11.60;99.90
22779;DHT22;11556;51.194;3.800;2022-12-20T14:42:02;11.50;99.90
22779;DHT22;11556;51.194;3.800;2022-12-20T14:44:36;11.50;99.90
22779;DHT22;11556;51.194;3.800;2022-12-20T14:47:20;11.50;99.90
22779;DHT22;11556;51.194;3.800;2022-12-20T14:49:48;11.40;99.90
22779;DHT22;11556;51.194;3.800;2022-12-20T14:52:28;11.50;99.90
22779;DHT22;11556;51.194;3.800;2022-12-20T14:55:29;11.40;99.90
22779;DHT22;11556;51.194;3.800;2022-12-20T14:57:56;11.30;99.90
22779;DHT22;11556;51.194;3.800;2022-12-20T15:00:26;11.30;99.90
22779;DHT22;11556;51.194;3.800;2022-12-20T15:08:25;11.30;99.90
22779;DHT22;11556;51.194;3.800;2022-12-20T15:13:42;11.40;99.90
22779;DHT22;11556;51.194;3.800;2022-12-20T15:16:20;11.20;99.90
22779;DHT22;11556;51.194;3.800;2022-12-20T15:18:47;11.20;99.90
22779;DHT22;11556;51.194;3.800;2022-12-20T15:21:36;11.20;99.90
22779;DHT22;11556;51.194;3.800;2022-12-20T15:24:09;11.20;99.90
22779;DHT22;11556;51.194;3.800;2022-12-20T15:26:36;11.10;99.90
22779;DHT22;11556;51.194;3.800;2022-12-20T15:29:02;11.20;99.90
22779;DHT22;11556;51.194;3.800;2022-12-20T15:31:29;11.20;99.90
22779;DHT22;11556;51.194;3.800;2022-12-20T15:33:55;11.20;99.90
22779;DHT22;11556;51.194;3.800;2022-12-20T15:36:26;11.20;99.90
22779;DHT22;11556;51.194;3.800;2022-12-20T15:38:54;11.30;99.90
22779;DHT22;11556;51.194;3.800;2022-12-20T15:41:31;11.30;99.90
22779;DHT22;11556;51.194;3.800;2022-12-20T15:44:04;11.20;99.90
22779;DHT22;11556;51.194;3.800;2022-12-20T15:46:30;11.20;99.90
22779;DHT22;11556;51.194;3.800;2022-12-20T15:48:55;11.20;99.90
22779;DHT22;11556;51.194;3.800;2022-12-20T15:51:34;11.20;99.90
22779;DHT22;11556;51.194;3.800;2022-12-20T15:54:02;11.20;99.90
22779;DHT22;11556;51.194;3.800;2022-12-20T15:56:28;11.30;99.90
22779;DHT22;11556;51.194;3.800;2022-12-20T15:58:55;11.30;99.90
22779;DHT22;11556;51.194;3.800;2022-12-20T16:01:28;11.20;99.90
22779;DHT22;11556;51.194;3.800;2022-12-20T16:03:55;11.20;99.90
22779;DHT22;11556;51.194;3.800;2022-12-20T16:06:21;11.30;99.90
22779;DHT22;11556;51.194;3.800;2022-12-20T16:08:47;11.30;99.90
22779;DHT22;11556;51.194;3.800;2022-12-20T16:11:19;11.30;99.90
22779;DHT22;11556;51.194;3.800;2022-12-20T16:13:46;11.40;99.90
22779;DHT22;11556;51.194;3.800;2022-12-20T16:16:17;11.40;99.90
22779;DHT22;11556;51.194;3.800;2022-12-20T16:18:43;11.30;99.90
22779;DHT22;11556;51.194;3.800;2022-12-20T16:21:17;11.40;99.90
22779;DHT22;11556;51.194;3.800;2022-12-20T16:23:44;11.40;99.90
22779;DHT22;11556;51.194;3.800;2022-12-20T16:26:14;11.30;99.90
22779;DHT22;11556;51.194;3.800;2022-12-20T16:28:41;11.40;99.90
22779;DHT22;11556;51.194;3.800;2022-12-20T16:33:42;11.50;99.90
22779;DHT22;11556;51.194;3.800;2022-12-20T16:36:10;11.40;99.90
22779;DHT22;11556;51.194;3.800;2022-12-20T16:38:35;11.30;99.90
22779;DHT22;11556;51.194;3.800;2022-12-20T16:41:13;11.30;99.90
22779;DHT22;11556;51.194;3.800;2022-12-20T16:43:40;11.30;99.90
22779;DHT22;11556;51.194;3.800;2022-12-20T16:46:07;11.40;99.90
22779;DHT22;11556;51.194;3.800;2022-12-20T16:48:34;11.40;99.90
22779;DHT22;11556;51.194;3.800;2022-12-20T16:50:59;11.30;99.90
22779;DHT22;11556;51.194;3.800;2022-12-20T16:53:25;11.40;99.90
22779;DHT22;11556;51.194;3.800;2022-12-20T16:55:50;11.40;99.90
22779;DHT22;11556;51.194;3.800;2022-12-20T16:58:16;11.40;99.90
22779;DHT22;11556;51.194;3.800;2022-12-20T17:00:41;11.40;99.90
22779;DHT22;11556;51.194;3.800;2022-12-20T17:03:07;11.30;99.90
22779;DHT22;11556;51.194;3.800;2022-12-20T17:05:35;11.30;99.90
22779;DHT22;11556;51.194;3.800;2022-12-20T17:08:01;11.40;99.90
22779;DHT22;11556;51.194;3.800;2022-12-20T17:10:28;11.40;99.90
22779;DHT22;11556;51.194;3.800;2022-12-20T17:12:55;11.50;99.90
22779;DHT22;11556;51.194;3.800;2022-12-20T17:15:22;11.50;99.90
22779;DHT22;11556;51.194;3.800;2022-12-20T17:17:48;11.50;99.90
22779;DHT22;11556;51.194;3.800;2022-12-20T17:20:15;11.50;99.90
22779;DHT22;11556;51.194;3.800;2022-12-20T17:22:42;11.40;99.90
22779;DHT22;11556;51.194;3.800;2022-12-20T17:27:47;11.60;99.90
22779;DHT22;11556;51.194;3.800;2022-12-20T17:30:13;11.50;99.90
22779;DHT22;11556;51.194;3.800;2022-12-20T17:32:39;11.40;99.90
22779;DHT22;11556;51.194;3.800;2022-12-20T17:35:05;11.40;99.90
22779;DHT22;11556;51.194;3.800;2022-12-20T17:37:32;11.50;99.90
22779;DHT22;11556;51.194;3.800;2022-12-20T17:39:59;11.60;99.90
22779;DHT22;11556;51.194;3.800;2022-12-20T17:42:25;11.50;99.90
22779;DHT22;11556;51.194;3.800;2022-12-20T17:44:50;11.60;99.90
22779;DHT22;11556;51.194;3.800;2022-12-20T17:47:16;11.40;99.90
22779;DHT22;11556;51.194;3.800;2022-12-20T17:49:41;11.40;99.90
22779;DHT22;11556;51.194;3.800;2022-12-20T17:52:16;11.40;99.90
22779;DHT22;11556;51.194;3.800;2022-12-20T17:54:41;11.30;99.90
22779;DHT22;11556;51.194;3.800;2022-12-20T17:57:14;11.20;99.90
22779;DHT22;11556;51.194;3.800;2022-12-20T17:59:40;11.20;99.90
22779;DHT22;11556;51.194;3.800;2022-12-20T18:02:19;11.30;99.90
22779;DHT22;11556;51.194;3.800;2022-12-20T18:04:45;11.30;99.90